sensor_id;sensor_type;location;lat;lon;timestamp;pressure;altitude;pressure_sealevel;temperature;humidity
10881;BME280;5493;48.884;8.338;2023-02-22T00:01:18;100106.69;;;7.77;100.00
10881;BME280;5493;48.884;8.338;2023-02-22T00:03:52;100109.13;;;7.65;100.00
10881;BME280;5493;48.884;8.338;2023-02-22T00:06:21;100101.28;;;7.64;100.00
10881;BME280;5493;48.884;8.338;2023-02-22T00:08:49;100099.44;;;7.64;100.00
10881;BME280;5493;48.884;8.338;2023-02-22T00:11:18;100108.53;;;7.89;100.00
10881;BME280;5493;48.884;8.338;2023-02-22T00:13:45;100104.00;;;7.70;100.00
10881;BME280;5493;48.884;8.338;2023-02-22T00:16:13;100112.88;;;7.77;100.00
10881;BME280;5493;48.884;8.338;2023-02-22T00:18:40;100106.25;;;7.93;100.00
10881;BME280;5493;48.884;8.338;2023-02-22T00:21:07;100103.78;;;7.98;100.00
10881;BME280;5493;48.884;8.338;2023-02-22T00:23:35;100115.34;;;8.05;100.00
10881;BME280;5493;48.884;8.338;2023-02-22T00:26:04;100120.31;;;8.02;100.00
10881;BME280;5493;48.884;8.338;2023-02-22T00:28:35;100115.97;;;7.81;100.00
10881;BME280;5493;48.884;8.338;2023-02-22T00:31:03;100107.69;;;7.63;100.00
10881;BME280;5493;48.884;8.338;2023-02-22T00:33:31;100106.25;;;7.80;100.00
10881;BME280;5493;48.884;8.338;2023-02-22T00:35:58;100102.09;;;7.51;100.00
10881;BME280;5493;48.884;8.338;2023-02-22T00:38:25;100107.44;;;7.38;100.00
10881;BME280;5493;48.884;8.338;2023-02-22T00:40:51;100112.41;;;7.48;100.00
10881;BME280;5493;48.884;8.338;2023-02-22T00:43:18;100103.53;;;7.54;100.00
10881;BME280;5493;48.884;8.338;2023-02-22T00:45:46;100096.56;;;7.72;100.00
10881;BME280;5493;48.884;8.338;2023-02-22T00:48:13;100097.16;;;7.68;100.00
10881;BME280;5493;48.884;8.338;2023-02-22T00:50:40;100095.66;;;7.32;100.00
10881;BME280;5493;48.884;8.338;2023-02-22T00:53:06;100092.38;;;7.30;100.00
10881;BME280;5493;48.884;8.338;2023-02-22T00:55:35;100089.66;;;7.24;100.00
10881;BME280;5493;48.884;8.338;2023-02-22T00:58:03;100097.53;;;7.38;100.00
10881;BME280;5493;48.884;8.338;2023-02-22T01:00:31;100083.94;;;7.60;100.00
10881;BME280;5493;48.884;8.338;2023-02-22T01:03:00;100083.94;;;7.40;100.00
10881;BME280;5493;48.884;8.338;2023-02-22T01:05:28;100077.94;;;7.38;100.00
10881;BME280;5493;48.884;8.338;2023-02-22T01:07:55;100068.84;;;7.26;100.00
10881;BME280;5493;48.884;8.338;2023-02-22T01:10:25;100069.88;;;7.31;100.00
10881;BME280;5493;48.884;8.338;2023-02-22T01:12:52;100076.22;;;7.04;100.00
10881;BME280;5493;48.884;8.338;2023-02-22T01:15:19;100064.41;;;6.85;100.00
10881;BME280;5493;48.884;8.338;2023-02-22T01:17:47;100067.59;;;7.09;100.00
10881;BME280;5493;48.884;8.338;2023-02-22T01:20:16;100067.16;;;7.05;100.00
10881;BME280;5493;48.884;8.338;2023-02-22T01:22:46;100060.56;;;7.14;100.00
10881;BME280;5493;48.884;8.338;2023-02-22T01:25:16;100056.88;;;7.41;100.00
10881;BME280;5493;48.884;8.338;2023-02-22T01:27:43;100047.41;;;7.19;100.00
10881;BME280;5493;48.884;8.338;2023-02-22T01:30:12;100040.56;;;7.17;100.00
10881;BME280;5493;48.884;8.338;2023-02-22T01:32:40;100050.88;;;7.13;100.00
10881;BME280;5493;48.884;8.338;2023-02-22T01:35:10;100043.06;;;7.38;100.00
10881;BME280;5493;48.884;8.338;2023-02-22T01:37:39;100052.38;;;7.49;100.00
10881;BME280;5493;48.884;8.338;2023-02-22T01:40:08;100048.03;;;7.41;100.00
10881;BME280;5493;48.884;8.338;2023-02-22T01:42:36;100045.38;;;7.41;100.00
10881;BME280;5493;48.884;8.338;2023-02-22T01:45:43;100060.13;;;7.04;100.00
10881;BME280;5493;48.884;8.338;2023-02-22T01:48:15;100057.88;;;7.08;100.00
10881;BME280;5493;48.884;8.338;2023-02-22T01:50:46;100053.34;;;7.15;100.00
10881;BME280;5493;48.884;8.338;2023-02-22T01:53:16;100039.31;;;7.13;100.00
10881;BME280;5493;48.884;8.338;2023-02-22T01:55:44;100039.72;;;7.16;100.00
10881;BME280;5493;48.884;8.338;2023-02-22T01:58:12;100037.47;;;7.13;100.00
10881;BME280;5493;48.884;8.338;2023-02-22T02:00:40;100040.97;;;7.07;100.00
10881;BME280;5493;48.884;8.338;2023-02-22T02:03:11;100037.25;;;7.02;100.00
10881;BME280;5493;48.884;8.338;2023-02-22T02:05:40;100036.78;;;6.91;100.00
10881;BME280;5493;48.884;8.338;2023-02-22T02:08:11;100035.59;;;7.07;100.00
10881;BME280;5493;48.884;8.338;2023-02-22T02:10:43;100029.22;;;7.15;100.00
10881;BME280;5493;48.884;8.338;2023-02-22T02:13:09;100033.50;;;6.89;100.00
10881;BME280;5493;48.884;8.338;2023-02-22T02:15:36;100041.84;;;6.60;100.00
10881;BME280;5493;48.884;8.338;2023-02-22T02:18:05;100040.72;;;6.41;100.00
10881;BME280;5493;48.884;8.338;2023-02-22T02:20:41;100043.47;;;6.55;100.00
10881;BME280;5493;48.884;8.338;2023-02-22T02:23:23;100041.88;;;6.67;100.00
10881;BME280;5493;48.884;8.338;2023-02-22T02:26:14;100039.06;;;6.94;100.00
10881;BME280;5493;48.884;8.338;2023-02-22T02:32:12;100031.59;;;6.77;100.00
10881;BME280;5493;48.884;8.338;2023-02-22T02:38:10;100026.84;;;6.72;100.00
10881;BME280;5493;48.884;8.338;2023-02-22T02:40:46;100029.13;;;6.69;100.00
10881;BME280;5493;48.884;8.338;2023-02-22T02:43:17;100027.03;;;6.64;100.00
10881;BME280;5493;48.884;8.338;2023-02-22T02:45:52;100024.50;;;6.56;100.00
10881;BME280;5493;48.884;8.338;2023-02-22T02:48:24;100025.50;;;6.49;100.00
10881;BME280;5493;48.884;8.338;2023-02-22T02:50:54;100018.72;;;6.53;100.00
10881;BME280;5493;48.884;8.338;2023-02-22T02:53:24;100018.91;;;6.51;100.00
10881;BME280;5493;48.884;8.338;2023-02-22T02:55:52;100015.81;;;6.48;100.00
10881;BME280;5493;48.884;8.338;2023-02-22T02:58:22;100017.47;;;6.49;100.00
10881;BME280;5493;48.884;8.338;2023-02-22T03:00:51;100018.84;;;6.31;100.00
10881;BME280;5493;48.884;8.338;2023-02-22T03:03:43;100011.16;;;6.63;100.00
10881;BME280;5493;48.884;8.338;2023-02-22T03:09:30;100012.34;;;6.47;100.00
10881;BME280;5493;48.884;8.338;2023-02-22T03:12:09;100007.16;;;6.46;100.00
10881;BME280;5493;48.884;8.338;2023-02-22T03:14:41;100005.31;;;6.39;100.00
10881;BME280;5493;48.884;8.338;2023-02-22T03:17:17;100008.38;;;6.36;100.00
10881;BME280;5493;48.884;8.338;2023-02-22T03:19:50;100004.69;;;6.44;100.00
10881;BME280;5493;48.884;8.338;2023-02-22T03:22:23;100002.31;;;6.69;100.00
10881;BME280;5493;48.884;8.338;2023-02-22T03:24:55;99996.19;;;6.34;100.00
10881;BME280;5493;48.884;8.338;2023-02-22T03:27:27;100001.56;;;6.40;100.00
10881;BME280;5493;48.884;8.338;2023-02-22T03:30:01;99998.41;;;6.65;100.00
10881;BME280;5493;48.884;8.338;2023-02-22T03:32:32;99995.06;;;6.56;100.00
10881;BME280;5493;48.884;8.338;2023-02-22T03:35:06;99992.00;;;6.66;100.00
10881;BME280;5493;48.884;8.338;2023-02-22T03:37:37;99986.44;;;6.61;100.00
10881;BME280;5493;48.884;8.338;2023-02-22T03:40:08;99986.78;;;6.51;100.00
10881;BME280;5493;48.884;8.338;2023-02-22T03:42:40;99985.34;;;6.49;100.00
10881;BME280;5493;48.884;8.338;2023-02-22T03:45:09;99983.63;;;6.34;100.00
10881;BME280;5493;48.884;8.338;2023-02-22T03:47:41;99988.81;;;6.36;100.00
10881;BME280;5493;48.884;8.338;2023-02-22T03:50:11;99991.09;;;6.39;100.00
10881;BME280;5493;48.884;8.338;2023-02-22T03:52:40;99991.41;;;6.23;100.00
10881;BME280;5493;48.884;8.338;2023-02-22T03:55:08;99991.75;;;6.07;100.00
10881;BME280;5493;48.884;8.338;2023-02-22T03:57:38;99995.88;;;6.09;100.00
10881;BME280;5493;48.884;8.338;2023-02-22T04:00:11;99998.69;;;6.01;100.00
10881;BME280;5493;48.884;8.338;2023-02-22T04:02:39;99991.06;;;5.98;100.00
10881;BME280;5493;48.884;8.338;2023-02-22T04:05:06;99990.81;;;6.27;100.00
10881;BME280;5493;48.884;8.338;2023-02-22T04:07:34;99994.31;;;6.28;100.00
10881;BME280;5493;48.884;8.338;2023-02-22T04:10:01;99990.66;;;6.01;100.00
10881;BME280;5493;48.884;8.338;2023-02-22T04:12:27;99987.34;;;5.92;100.00
10881;BME280;5493;48.884;8.338;2023-02-22T04:14:54;99995.84;;;6.03;100.00
10881;BME280;5493;48.884;8.338;2023-02-22T04:17:20;99992.09;;;5.97;100.00
10881;BME280;5493;48.884;8.338;2023-02-22T04:19:47;99989.63;;;5.96;100.00
10881;BME280;5493;48.884;8.338;2023-02-22T04:22:13;99995.94;;;5.88;100.00
10881;BME280;5493;48.884;8.338;2023-02-22T04:24:41;99993.97;;;5.97;100.00
10881;BME280;5493;48.884;8.338;2023-02-22T04:27:08;99991.16;;;6.11;100.00
10881;BME280;5493;48.884;8.338;2023-02-22T04:29:34;99985.88;;;6.31;100.00
10881;BME280;5493;48.884;8.338;2023-02-22T04:32:01;99988.72;;;6.23;100.00
10881;BME280;5493;48.884;8.338;2023-02-22T04:34:27;99991.53;;;6.08;100.00
10881;BME280;5493;48.884;8.338;2023-02-22T04:36:54;99994.72;;;5.90;100.00
10881;BME280;5493;48.884;8.338;2023-02-22T04:39:20;99993.81;;;5.83;100.00
10881;BME280;5493;48.884;8.338;2023-02-22T04:41:48;100000.19;;;5.82;100.00
10881;BME280;5493;48.884;8.338;2023-02-22T04:44:15;99997.63;;;5.89;100.00
10881;BME280;5493;48.884;8.338;2023-02-22T04:46:41;100000.81;;;6.12;100.00
10881;BME280;5493;48.884;8.338;2023-02-22T04:49:08;99999.69;;;5.93;100.00
10881;BME280;5493;48.884;8.338;2023-02-22T04:51:34;100001.31;;;5.88;100.00
10881;BME280;5493;48.884;8.338;2023-02-22T04:54:01;100003.00;;;5.96;100.00
10881;BME280;5493;48.884;8.338;2023-02-22T04:56:28;100000.06;;;5.90;100.00
10881;BME280;5493;48.884;8.338;2023-02-22T04:58:55;100002.41;;;6.00;100.00
10881;BME280;5493;48.884;8.338;2023-02-22T05:01:22;99993.78;;;6.05;100.00
10881;BME280;5493;48.884;8.338;2023-02-22T05:03:49;99996.72;;;5.82;100.00
10881;BME280;5493;48.884;8.338;2023-02-22T05:06:17;100001.63;;;5.78;100.00
10881;BME280;5493;48.884;8.338;2023-02-22T05:08:43;100003.03;;;5.74;100.00
10881;BME280;5493;48.884;8.338;2023-02-22T05:11:10;99997.09;;;5.79;100.00
10881;BME280;5493;48.884;8.338;2023-02-22T05:13:36;99994.53;;;5.64;100.00
10881;BME280;5493;48.884;8.338;2023-02-22T05:16:05;99992.63;;;5.58;100.00
10881;BME280;5493;48.884;8.338;2023-02-22T05:18:31;99993.06;;;5.62;100.00
10881;BME280;5493;48.884;8.338;2023-02-22T05:20:58;99996.16;;;5.65;100.00
10881;BME280;5493;48.884;8.338;2023-02-22T05:23:24;99990.22;;;5.63;100.00
10881;BME280;5493;48.884;8.338;2023-02-22T05:25:51;99990.13;;;5.84;100.00
10881;BME280;5493;48.884;8.338;2023-02-22T05:28:17;99995.44;;;5.78;100.00
10881;BME280;5493;48.884;8.338;2023-02-22T05:30:44;99993.50;;;5.65;100.00
10881;BME280;5493;48.884;8.338;2023-02-22T05:33:12;100002.13;;;5.88;100.00
10881;BME280;5493;48.884;8.338;2023-02-22T05:35:38;99994.22;;;5.80;100.00
10881;BME280;5493;48.884;8.338;2023-02-22T05:38:05;99998.13;;;5.78;100.00
10881;BME280;5493;48.884;8.338;2023-02-22T05:40:32;100002.00;;;5.97;100.00
10881;BME280;5493;48.884;8.338;2023-02-22T05:42:59;99996.66;;;6.03;100.00
10881;BME280;5493;48.884;8.338;2023-02-22T05:45:27;99997.72;;;6.09;100.00
10881;BME280;5493;48.884;8.338;2023-02-22T05:47:53;100007.78;;;6.00;100.00
10881;BME280;5493;48.884;8.338;2023-02-22T05:50:22;100012.78;;;5.82;100.00
10881;BME280;5493;48.884;8.338;2023-02-22T05:52:49;100002.06;;;5.82;100.00
10881;BME280;5493;48.884;8.338;2023-02-22T05:55:17;100003.81;;;5.89;100.00
10881;BME280;5493;48.884;8.338;2023-02-22T05:57:44;100006.03;;;5.86;100.00
10881;BME280;5493;48.884;8.338;2023-02-22T06:00:15;100005.47;;;5.69;100.00
10881;BME280;5493;48.884;8.338;2023-02-22T06:02:42;100005.53;;;5.82;100.00
10881;BME280;5493;48.884;8.338;2023-02-22T06:05:09;100004.84;;;5.95;100.00
10881;BME280;5493;48.884;8.338;2023-02-22T06:07:36;100014.59;;;5.54;100.00
10881;BME280;5493;48.884;8.338;2023-02-22T06:10:04;100017.16;;;5.68;100.00
10881;BME280;5493;48.884;8.338;2023-02-22T06:12:30;100012.63;;;5.62;100.00
10881;BME280;5493;48.884;8.338;2023-02-22T06:14:57;100009.44;;;5.80;100.00
10881;BME280;5493;48.884;8.338;2023-02-22T06:17:23;100017.81;;;5.70;100.00
10881;BME280;5493;48.884;8.338;2023-02-22T06:19:50;100012.69;;;5.97;100.00
10881;BME280;5493;48.884;8.338;2023-02-22T06:22:17;100014.31;;;5.98;100.00
10881;BME280;5493;48.884;8.338;2023-02-22T06:24:45;100012.47;;;5.98;100.00
10881;BME280;5493;48.884;8.338;2023-02-22T06:27:12;100016.25;;;6.10;100.00
10881;BME280;5493;48.884;8.338;2023-02-22T06:29:43;100017.75;;;6.19;100.00
10881;BME280;5493;48.884;8.338;2023-02-22T06:32:10;100019.16;;;6.15;100.00
10881;BME280;5493;48.884;8.338;2023-02-22T06:34:36;100015.50;;;6.23;100.00
10881;BME280;5493;48.884;8.338;2023-02-22T06:37:04;100017.41;;;6.29;100.00
10881;BME280;5493;48.884;8.338;2023-02-22T06:39:30;100022.34;;;6.32;100.00
10881;BME280;5493;48.884;8.338;2023-02-22T06:41:58;100020.97;;;6.42;100.00
10881;BME280;5493;48.884;8.338;2023-02-22T06:44:25;100018.03;;;6.37;100.00
10881;BME280;5493;48.884;8.338;2023-02-22T06:46:51;100015.59;;;6.42;100.00
10881;BME280;5493;48.884;8.338;2023-02-22T06:49:18;100030.66;;;6.43;100.00
10881;BME280;5493;48.884;8.338;2023-02-22T06:51:46;100019.97;;;6.50;100.00
10881;BME280;5493;48.884;8.338;2023-02-22T06:54:13;100025.63;;;6.75;100.00
10881;BME280;5493;48.884;8.338;2023-02-22T06:56:40;100023.38;;;6.85;100.00
10881;BME280;5493;48.884;8.338;2023-02-22T06:59:07;100024.63;;;6.82;100.00
10881;BME280;5493;48.884;8.338;2023-02-22T07:01:34;100026.06;;;6.85;100.00
10881;BME280;5493;48.884;8.338;2023-02-22T07:04:01;100025.78;;;6.67;100.00
10881;BME280;5493;48.884;8.338;2023-02-22T07:06:27;100028.47;;;6.67;100.00
10881;BME280;5493;48.884;8.338;2023-02-22T07:08:54;100037.78;;;6.77;100.00
10881;BME280;5493;48.884;8.338;2023-02-22T07:11:20;100032.06;;;6.93;100.00
10881;BME280;5493;48.884;8.338;2023-02-22T07:13:47;100027.97;;;7.04;100.00
10881;BME280;5493;48.884;8.338;2023-02-22T07:16:15;100037.03;;;7.03;100.00
10881;BME280;5493;48.884;8.338;2023-02-22T07:18:41;100038.47;;;6.99;100.00
10881;BME280;5493;48.884;8.338;2023-02-22T07:21:08;100031.31;;;7.19;100.00
10881;BME280;5493;48.884;8.338;2023-02-22T07:23:34;100045.91;;;7.04;100.00
10881;BME280;5493;48.884;8.338;2023-02-22T07:26:02;100048.16;;;7.07;100.00
10881;BME280;5493;48.884;8.338;2023-02-22T07:28:29;100042.78;;;6.93;100.00
10881;BME280;5493;48.884;8.338;2023-02-22T07:30:56;100042.38;;;7.03;100.00
10881;BME280;5493;48.884;8.338;2023-02-22T07:33:24;100047.47;;;6.78;100.00
10881;BME280;5493;48.884;8.338;2023-02-22T07:35:51;100036.19;;;6.89;100.00
10881;BME280;5493;48.884;8.338;2023-02-22T07:38:19;100033.69;;;6.94;100.00
10881;BME280;5493;48.884;8.338;2023-02-22T07:40:45;100039.53;;;7.05;100.00
10881;BME280;5493;48.884;8.338;2023-02-22T07:43:14;100028.03;;;7.30;100.00
10881;BME280;5493;48.884;8.338;2023-02-22T07:45:42;100030.91;;;7.35;100.00
10881;BME280;5493;48.884;8.338;2023-02-22T07:48:09;100020.13;;;7.03;100.00
10881;BME280;5493;48.884;8.338;2023-02-22T07:50:38;100023.25;;;7.39;100.00
10881;BME280;5493;48.884;8.338;2023-02-22T07:53:07;100018.13;;;7.57;100.00
10881;BME280;5493;48.884;8.338;2023-02-22T07:55:35;100022.66;;;7.63;100.00
10881;BME280;5493;48.884;8.338;2023-02-22T07:58:06;100018.75;;;7.66;100.00
10881;BME280;5493;48.884;8.338;2023-02-22T08:00:36;100012.75;;;7.77;100.00
10881;BME280;5493;48.884;8.338;2023-02-22T08:03:04;100016.44;;;7.89;100.00
10881;BME280;5493;48.884;8.338;2023-02-22T08:05:32;100017.66;;;8.06;100.00
10881;BME280;5493;48.884;8.338;2023-02-22T08:08:04;100013.31;;;8.12;100.00
10881;BME280;5493;48.884;8.338;2023-02-22T08:10:32;100011.22;;;8.27;100.00
10881;BME280;5493;48.884;8.338;2023-02-22T08:13:00;100015.13;;;8.37;100.00
10881;BME280;5493;48.884;8.338;2023-02-22T08:15:29;100013.47;;;8.36;100.00
10881;BME280;5493;48.884;8.338;2023-02-22T08:17:57;100005.78;;;8.53;100.00
10881;BME280;5493;48.884;8.338;2023-02-22T08:20:25;100004.56;;;8.49;100.00
10881;BME280;5493;48.884;8.338;2023-02-22T08:22:53;100011.94;;;8.60;100.00
10881;BME280;5493;48.884;8.338;2023-02-22T08:25:23;100007.53;;;8.72;100.00
10881;BME280;5493;48.884;8.338;2023-02-22T08:27:51;100012.22;;;8.83;100.00
10881;BME280;5493;48.884;8.338;2023-02-22T08:30:23;100012.38;;;8.95;100.00
10881;BME280;5493;48.884;8.338;2023-02-22T08:32:50;100017.66;;;9.15;100.00
10881;BME280;5493;48.884;8.338;2023-02-22T08:35:21;100017.50;;;9.03;100.00
10881;BME280;5493;48.884;8.338;2023-02-22T08:37:50;100016.66;;;8.71;100.00
10881;BME280;5493;48.884;8.338;2023-02-22T08:42:46;100006.53;;;8.67;100.00
10881;BME280;5493;48.884;8.338;2023-02-22T08:45:14;100011.41;;;8.83;100.00
10881;BME280;5493;48.884;8.338;2023-02-22T08:47:41;100008.13;;;8.81;100.00
10881;BME280;5493;48.884;8.338;2023-02-22T08:50:15;100001.81;;;9.00;100.00
10881;BME280;5493;48.884;8.338;2023-02-22T08:52:42;100000.16;;;9.30;100.00
10881;BME280;5493;48.884;8.338;2023-02-22T08:55:08;100002.38;;;9.33;100.00
10881;BME280;5493;48.884;8.338;2023-02-22T08:57:35;100001.16;;;9.61;100.00
10881;BME280;5493;48.884;8.338;2023-02-22T09:00:04;100009.88;;;9.81;100.00
10881;BME280;5493;48.884;8.338;2023-02-22T09:02:30;100008.97;;;10.12;100.00
10881;BME280;5493;48.884;8.338;2023-02-22T09:04:57;100016.84;;;10.31;100.00
10881;BME280;5493;48.884;8.338;2023-02-22T09:07:23;100001.38;;;10.27;100.00
10881;BME280;5493;48.884;8.338;2023-02-22T09:09:51;100008.97;;;10.12;100.00
10881;BME280;5493;48.884;8.338;2023-02-22T09:12:18;100002.53;;;10.13;100.00
10881;BME280;5493;48.884;8.338;2023-02-22T09:14:44;100000.09;;;10.29;100.00
10881;BME280;5493;48.884;8.338;2023-02-22T09:17:12;99997.38;;;10.48;100.00
10881;BME280;5493;48.884;8.338;2023-02-22T09:19:39;99999.72;;;10.44;100.00
10881;BME280;5493;48.884;8.338;2023-02-22T09:22:05;100000.16;;;10.59;100.00
10881;BME280;5493;48.884;8.338;2023-02-22T09:24:32;99996.16;;;11.10;100.00
10881;BME280;5493;48.884;8.338;2023-02-22T09:26:58;99987.25;;;11.21;100.00
10881;BME280;5493;48.884;8.338;2023-02-22T09:29:28;99989.06;;;11.39;100.00
10881;BME280;5493;48.884;8.338;2023-02-22T09:31:55;99991.09;;;11.66;100.00
10881;BME280;5493;48.884;8.338;2023-02-22T09:34:24;99984.75;;;11.72;100.00
10881;BME280;5493;48.884;8.338;2023-02-22T09:36:54;99993.00;;;11.89;100.00
10881;BME280;5493;48.884;8.338;2023-02-22T09:39:21;99974.78;;;11.96;100.00
10881;BME280;5493;48.884;8.338;2023-02-22T09:41:53;99982.78;;;12.03;100.00
10881;BME280;5493;48.884;8.338;2023-02-22T09:44:28;99976.88;;;12.29;100.00
10881;BME280;5493;48.884;8.338;2023-02-22T09:47:00;99972.50;;;12.40;100.00
10881;BME280;5493;48.884;8.338;2023-02-22T09:49:31;99975.06;;;12.46;100.00
10881;BME280;5493;48.884;8.338;2023-02-22T09:52:05;99973.25;;;12.63;100.00
10881;BME280;5493;48.884;8.338;2023-02-22T09:54:37;99969.78;;;12.40;100.00
10881;BME280;5493;48.884;8.338;2023-02-22T09:57:07;99968.31;;;12.60;100.00
10881;BME280;5493;48.884;8.338;2023-02-22T09:59:38;99965.84;;;12.59;100.00
10881;BME280;5493;48.884;8.338;2023-02-22T10:02:17;99975.13;;;12.63;100.00
10881;BME280;5493;48.884;8.338;2023-02-22T10:04:51;99963.84;;;12.94;100.00
10881;BME280;5493;48.884;8.338;2023-02-22T10:07:26;99967.44;;;12.71;100.00
10881;BME280;5493;48.884;8.338;2023-02-22T10:09:55;99963.50;;;12.91;100.00
10881;BME280;5493;48.884;8.338;2023-02-22T10:12:37;99967.09;;;12.96;100.00
10881;BME280;5493;48.884;8.338;2023-02-22T10:15:25;99965.94;;;12.92;100.00
10881;BME280;5493;48.884;8.338;2023-02-22T10:18:03;99969.47;;;13.21;100.00
10881;BME280;5493;48.884;8.338;2023-02-22T10:20:48;99965.75;;;13.10;100.00
10881;BME280;5493;48.884;8.338;2023-02-22T10:23:24;99974.06;;;13.20;100.00
10881;BME280;5493;48.884;8.338;2023-02-22T10:25:55;99968.75;;;13.42;100.00
10881;BME280;5493;48.884;8.338;2023-02-22T10:28:27;99969.84;;;13.41;100.00
10881;BME280;5493;48.884;8.338;2023-02-22T10:31:02;99968.09;;;13.52;100.00
10881;BME280;5493;48.884;8.338;2023-02-22T10:33:33;99965.16;;;13.70;100.00
10881;BME280;5493;48.884;8.338;2023-02-22T10:36:03;99961.84;;;13.85;100.00
10881;BME280;5493;48.884;8.338;2023-02-22T10:38:32;99960.59;;;13.92;100.00
10881;BME280;5493;48.884;8.338;2023-02-22T10:41:01;99957.22;;;14.02;100.00
10881;BME280;5493;48.884;8.338;2023-02-22T10:43:29;99959.69;;;14.03;100.00
10881;BME280;5493;48.884;8.338;2023-02-22T10:45:59;99952.56;;;14.19;100.00
10881;BME280;5493;48.884;8.338;2023-02-22T10:48:30;99958.69;;;14.31;100.00
10881;BME280;5493;48.884;8.338;2023-02-22T10:50:59;99957.97;;;14.19;100.00
10881;BME280;5493;48.884;8.338;2023-02-22T10:53:28;99962.41;;;14.25;100.00
10881;BME280;5493;48.884;8.338;2023-02-22T10:56:10;99956.22;;;14.29;100.00
10881;BME280;5493;48.884;8.338;2023-02-22T10:58:42;99957.06;;;14.52;100.00
10881;BME280;5493;48.884;8.338;2023-02-22T11:01:20;99950.84;;;14.13;100.00
10881;BME280;5493;48.884;8.338;2023-02-22T11:03:56;99948.69;;;14.53;100.00
10881;BME280;5493;48.884;8.338;2023-02-22T11:06:23;99952.59;;;14.41;100.00
10881;BME280;5493;48.884;8.338;2023-02-22T11:09:03;99949.97;;;14.46;100.00
10881;BME280;5493;48.884;8.338;2023-02-22T11:11:34;99935.25;;;14.63;100.00
10881;BME280;5493;48.884;8.338;2023-02-22T11:14:02;99932.34;;;14.48;100.00
10881;BME280;5493;48.884;8.338;2023-02-22T11:16:32;99938.75;;;14.86;100.00
10881;BME280;5493;48.884;8.338;2023-02-22T11:19:01;99930.44;;;14.97;100.00
10881;BME280;5493;48.884;8.338;2023-02-22T11:21:29;99925.41;;;15.11;100.00
10881;BME280;5493;48.884;8.338;2023-02-22T11:24:04;99921.41;;;15.50;100.00
10881;BME280;5493;48.884;8.338;2023-02-22T11:26:37;99927.66;;;15.93;100.00
10881;BME280;5493;48.884;8.338;2023-02-22T11:29:10;99918.41;;;16.51;100.00
10881;BME280;5493;48.884;8.338;2023-02-22T11:31:42;99913.69;;;17.64;100.00
10881;BME280;5493;48.884;8.338;2023-02-22T11:34:25;99920.75;;;17.75;100.00
10881;BME280;5493;48.884;8.338;2023-02-22T11:36:52;99909.59;;;18.46;97.17
10881;BME280;5493;48.884;8.338;2023-02-22T11:39:25;99911.91;;;18.13;100.00
10881;BME280;5493;48.884;8.338;2023-02-22T11:41:53;99900.31;;;18.96;95.44
10881;BME280;5493;48.884;8.338;2023-02-22T11:44:22;99896.22;;;19.32;89.64
10881;BME280;5493;48.884;8.338;2023-02-22T11:46:50;99886.97;;;19.62;86.23
10881;BME280;5493;48.884;8.338;2023-02-22T11:49:20;99889.81;;;20.23;86.94
10881;BME280;5493;48.884;8.338;2023-02-22T11:52:07;99896.25;;;19.61;84.27
10881;BME280;5493;48.884;8.338;2023-02-22T11:54:46;99891.25;;;20.82;81.84
10881;BME280;5493;48.884;8.338;2023-02-22T11:57:39;99888.00;;;19.66;81.24
10881;BME280;5493;48.884;8.338;2023-02-22T12:00:18;99880.56;;;20.19;83.52
10881;BME280;5493;48.884;8.338;2023-02-22T12:03:25;99872.97;;;21.15;75.54
10881;BME280;5493;48.884;8.338;2023-02-22T12:06:13;99876.16;;;21.35;71.84
10881;BME280;5493;48.884;8.338;2023-02-22T12:08:55;99869.19;;;21.43;72.34
10881;BME280;5493;48.884;8.338;2023-02-22T12:11:30;99873.75;;;21.34;69.02
10881;BME280;5493;48.884;8.338;2023-02-22T12:14:09;99860.34;;;21.14;67.73
10881;BME280;5493;48.884;8.338;2023-02-22T12:16:51;99861.84;;;22.39;67.51
10881;BME280;5493;48.884;8.338;2023-02-22T12:19:28;99862.84;;;22.29;68.35
10881;BME280;5493;48.884;8.338;2023-02-22T12:21:58;99859.25;;;22.70;62.79
10881;BME280;5493;48.884;8.338;2023-02-22T12:24:30;99855.47;;;21.10;64.46
10881;BME280;5493;48.884;8.338;2023-02-22T12:27:03;99857.06;;;22.03;66.10
10881;BME280;5493;48.884;8.338;2023-02-22T12:29:37;99855.47;;;22.66;67.87
10881;BME280;5493;48.884;8.338;2023-02-22T12:32:09;99851.19;;;22.73;61.89
10881;BME280;5493;48.884;8.338;2023-02-22T12:34:39;99858.00;;;22.62;61.49
10881;BME280;5493;48.884;8.338;2023-02-22T12:37:15;99861.09;;;21.65;63.49
10881;BME280;5493;48.884;8.338;2023-02-22T12:39:53;99861.28;;;21.55;66.73
10881;BME280;5493;48.884;8.338;2023-02-22T12:42:28;99859.59;;;21.73;68.07
10881;BME280;5493;48.884;8.338;2023-02-22T12:44:59;99858.44;;;21.14;70.42
10881;BME280;5493;48.884;8.338;2023-02-22T12:47:31;99861.78;;;21.11;68.09
10881;BME280;5493;48.884;8.338;2023-02-22T12:50:05;99851.63;;;20.55;75.77
10881;BME280;5493;48.884;8.338;2023-02-22T12:52:41;99851.50;;;20.47;76.25
10881;BME280;5493;48.884;8.338;2023-02-22T12:55:13;99853.91;;;20.06;84.12
10881;BME280;5493;48.884;8.338;2023-02-22T12:57:46;99850.47;;;19.95;80.57
10881;BME280;5493;48.884;8.338;2023-02-22T13:00:17;99858.06;;;20.03;83.01
10881;BME280;5493;48.884;8.338;2023-02-22T13:02:55;99857.97;;;19.61;81.43
10881;BME280;5493;48.884;8.338;2023-02-22T13:05:22;99852.06;;;19.20;85.52
10881;BME280;5493;48.884;8.338;2023-02-22T13:07:58;99860.22;;;18.91;89.25
10881;BME280;5493;48.884;8.338;2023-02-22T13:10:37;99850.63;;;18.94;90.70
10881;BME280;5493;48.884;8.338;2023-02-22T13:13:13;99853.78;;;18.72;91.00
10881;BME280;5493;48.884;8.338;2023-02-22T13:15:50;99841.59;;;18.98;90.29
10881;BME280;5493;48.884;8.338;2023-02-22T13:18:27;99845.44;;;18.92;93.51
10881;BME280;5493;48.884;8.338;2023-02-22T13:21:01;99853.53;;;18.74;94.49
10881;BME280;5493;48.884;8.338;2023-02-22T13:23:37;99841.56;;;18.59;93.82
10881;BME280;5493;48.884;8.338;2023-02-22T13:26:09;99843.81;;;18.47;94.86
10881;BME280;5493;48.884;8.338;2023-02-22T13:28:43;99846.03;;;18.40;94.58
10881;BME280;5493;48.884;8.338;2023-02-22T13:31:22;99843.75;;;17.98;98.37